createdAt,value
2019-05-20T00:01:06.360Z,6.90
2019-05-20T00:04:12.010Z,7.37
2019-05-20T00:07:17.765Z,7.72
2019-05-20T00:10:23.427Z,7.22
2019-05-20T00:13:29.054Z,6.90
2019-05-20T00:16:34.658Z,7.45
2019-05-20T00:19:40.366Z,6.70
2019-05-20T00:22:45.997Z,6.95
2019-05-20T00:25:51.654Z,6.75
2019-05-20T00:28:57.335Z,6.95
2019-05-20T00:32:03.091Z,7.17
2019-05-20T00:35:08.714Z,6.62
2019-05-20T00:38:15.318Z,6.75
2019-05-20T00:41:20.945Z,6.47
2019-05-20T00:44:26.495Z,6.50
2019-05-20T00:47:32.209Z,6.90
2019-05-20T00:50:37.822Z,6.75
2019-05-20T00:53:45.213Z,6.72
2019-05-20T00:56:53.006Z,6.10
2019-05-20T00:59:58.542Z,6.90
2019-05-20T01:03:04.063Z,6.03
2019-05-20T01:06:09.707Z,6.15
2019-05-20T01:09:15.326Z,6.70
2019-05-20T01:12:22.314Z,6.40
2019-05-20T01:15:27.930Z,6.47
2019-05-20T01:18:33.389Z,6.62
2019-05-20T01:21:39.065Z,6.87
2019-05-20T01:24:44.749Z,6.40
2019-05-20T01:27:50.379Z,6.15
2019-05-20T01:30:56.017Z,6.20
2019-05-20T01:34:01.609Z,6.15
2019-05-20T01:37:07.227Z,5.80
2019-05-20T01:40:13.271Z,5.65
2019-05-20T01:43:19.900Z,5.53
2019-05-20T01:46:25.514Z,6.10
2019-05-20T01:49:31.200Z,6.05
2019-05-20T01:52:36.935Z,5.75
2019-05-20T01:55:42.578Z,5.92
2019-05-20T01:58:48.230Z,6.08
2019-05-20T02:01:53.882Z,5.90
2019-05-20T02:04:59.539Z,5.85
2019-05-20T02:08:05.197Z,5.97
2019-05-20T02:11:11.870Z,6.30
2019-05-20T02:14:20.578Z,5.85
2019-05-20T02:17:26.137Z,5.55
2019-05-20T02:20:31.717Z,6.15
2019-05-20T02:23:37.461Z,5.85
2019-05-20T02:26:43.068Z,5.95
2019-05-20T02:29:48.678Z,6.08
2019-05-20T02:32:54.297Z,4.90
2019-05-20T02:35:59.987Z,5.47
2019-05-20T02:39:06.936Z,5.95
2019-05-20T02:42:12.583Z,5.95
2019-05-20T02:45:18.685Z,5.47
2019-05-20T02:48:25.303Z,5.50
2019-05-20T02:51:33.952Z,5.65
2019-05-20T02:54:39.640Z,5.40
2019-05-20T02:57:45.260Z,5.58
2019-05-20T03:00:50.894Z,5.33
2019-05-20T03:04:10.967Z,5.55
2019-05-20T03:07:03.969Z,5.47
2019-05-20T03:10:09.918Z,5.30
2019-05-20T03:13:15.570Z,5.78
2019-05-20T03:16:22.351Z,5.53
2019-05-20T03:19:28.008Z,5.55
2019-05-20T03:22:33.650Z,5.83
2019-05-20T03:25:41.111Z,5.28
2019-05-20T03:28:46.672Z,5.80
2019-05-20T03:31:52.165Z,5.33
2019-05-20T03:35:00.981Z,5.25
2019-05-20T03:38:06.018Z,5.45
2019-05-20T03:41:11.781Z,5.50
2019-05-20T03:44:17.654Z,5.22
2019-05-20T03:47:23.383Z,5.62
2019-05-20T03:50:29.153Z,5.58
2019-05-20T03:53:34.797Z,5.87
2019-05-20T03:56:40.447Z,5.30
2019-05-20T03:59:46.131Z,5.55
2019-05-20T04:02:51.723Z,5.60
2019-05-20T04:05:57.451Z,5.40
2019-05-20T04:09:03.609Z,5.33
2019-05-20T04:12:09.251Z,5.37
2019-05-20T04:15:15.159Z,5.95
2019-05-20T04:18:20.845Z,5.53
2019-05-20T04:21:26.590Z,5.58
2019-05-20T04:24:33.671Z,5.40
2019-05-20T04:27:39.503Z,5.95
2019-05-20T04:30:45.115Z,5.45
2019-05-20T04:33:51.048Z,5.53
2019-05-20T04:36:56.694Z,5.97
2019-05-20T04:40:02.553Z,6.10
2019-05-20T04:43:08.218Z,6.55
2019-05-20T04:46:13.863Z,5.58
2019-05-20T04:49:19.557Z,5.60
2019-05-20T04:52:25.142Z,5.17
2019-05-20T04:55:30.703Z,4.70
2019-05-20T04:58:37.394Z,4.70
2019-05-20T05:01:43.069Z,4.85
2019-05-20T05:04:48.682Z,4.58
2019-05-20T05:07:54.355Z,4.87
2019-05-20T05:11:00.105Z,4.97
2019-05-20T05:14:05.930Z,4.95
2019-05-20T05:17:11.728Z,4.90
2019-05-20T05:20:18.713Z,5.25
2019-05-20T05:23:24.457Z,5.37
2019-05-20T05:26:30.119Z,5.10
2019-05-20T05:29:37.542Z,4.87
2019-05-20T05:32:43.960Z,4.78
2019-05-20T05:35:53.237Z,4.78
2019-05-20T05:38:57.950Z,5.00
2019-05-20T05:42:03.699Z,5.03
2019-05-20T05:45:09.462Z,5.30
2019-05-20T05:48:15.054Z,5.15
2019-05-20T05:51:20.795Z,5.10
2019-05-20T05:54:26.386Z,5.20
2019-05-20T05:57:32.066Z,5.30
2019-05-20T06:00:37.828Z,4.95
2019-05-20T06:03:43.512Z,5.15
2019-05-20T06:06:49.097Z,4.80
2019-05-20T06:09:54.745Z,4.90
2019-05-20T06:13:00.467Z,4.50
2019-05-20T06:16:06.130Z,4.60
2019-05-20T06:19:11.938Z,4.45
2019-05-20T06:22:17.701Z,5.17
2019-05-20T06:25:23.323Z,4.80
2019-05-20T06:28:29.034Z,5.00
2019-05-20T06:31:34.655Z,4.65
2019-05-20T06:34:42.993Z,4.72
2019-05-20T06:37:52.867Z,4.97
2019-05-20T06:40:58.526Z,4.67
2019-05-20T06:44:04.130Z,4.80
2019-05-20T06:47:09.779Z,5.10
2019-05-20T06:50:15.642Z,4.90
2019-05-20T06:53:21.322Z,4.80
2019-05-20T06:56:26.946Z,4.25
2019-05-20T06:59:32.702Z,4.90
2019-05-20T07:02:38.320Z,4.60
2019-05-20T07:05:43.902Z,4.55
2019-05-20T07:08:49.598Z,4.70
2019-05-20T07:11:55.306Z,5.08
2019-05-20T07:15:00.935Z,4.95
2019-05-20T07:18:08.126Z,4.40
2019-05-20T07:21:13.808Z,4.33
2019-05-20T07:24:19.492Z,4.80
2019-05-20T07:27:25.244Z,6.97
2019-05-20T07:30:31.734Z,5.80
2019-05-20T07:33:37.338Z,6.12
2019-05-20T07:36:43.010Z,6.92
2019-05-20T07:39:48.678Z,6.37
2019-05-20T07:42:54.262Z,7.50
2019-05-20T07:46:01.239Z,5.90
2019-05-20T07:49:07.989Z,6.70
2019-05-20T07:52:13.842Z,6.42
2019-05-20T07:55:20.236Z,6.72
2019-05-20T07:58:28.829Z,6.80
2019-05-20T08:01:34.880Z,6.42
2019-05-20T08:04:40.577Z,6.87
2019-05-20T08:07:52.440Z,7.50
2019-05-20T08:10:53.607Z,6.87
2019-05-20T08:13:59.508Z,6.62
2019-05-20T08:17:05.199Z,6.70
2019-05-20T08:20:12.414Z,7.05
2019-05-20T08:23:18.022Z,7.45
2019-05-20T08:26:24.646Z,6.50
2019-05-20T08:29:30.151Z,6.35
2019-05-20T08:32:35.897Z,6.45
2019-05-20T08:35:41.606Z,6.80
2019-05-20T08:38:48.235Z,6.45
2019-05-20T08:41:55.573Z,6.03
2019-05-20T08:45:01.183Z,6.12
2019-05-20T08:48:06.964Z,6.53
2019-05-20T08:51:12.590Z,5.87
2019-05-20T08:54:18.252Z,6.10
2019-05-20T08:57:24.000Z,22.25
2019-05-20T09:00:30.638Z,27.00
2019-05-20T09:03:36.230Z,28.92
2019-05-20T09:06:42.864Z,34.55
2019-05-20T09:09:48.639Z,37.20
2019-05-20T09:12:54.358Z,39.80
2019-05-20T09:16:00.099Z,39.98
2019-05-20T09:19:05.826Z,42.17
2019-05-20T09:22:13.191Z,40.85
2019-05-20T09:25:22.619Z,42.65
2019-05-20T09:28:28.325Z,38.53
2019-05-20T09:31:34.124Z,39.08
2019-05-20T09:34:39.879Z,39.15
2019-05-20T09:37:45.487Z,38.50
2019-05-20T09:40:51.610Z,37.83
2019-05-20T09:43:57.310Z,35.48
2019-05-20T09:47:03.062Z,36.05
2019-05-20T09:50:10.110Z,34.27
2019-05-20T09:53:15.815Z,33.40
2019-05-20T09:56:21.514Z,34.40
2019-05-20T09:59:42.170Z,33.83
2019-05-20T10:02:38.313Z,32.83
2019-05-20T10:05:42.718Z,29.57
2019-05-20T10:08:48.430Z,29.75
2019-05-20T10:11:54.208Z,28.83
2019-05-20T10:14:59.776Z,28.05
2019-05-20T10:18:05.492Z,28.80
2019-05-20T10:21:11.249Z,26.62
2019-05-20T10:24:16.999Z,27.75
2019-05-20T10:27:22.622Z,25.95
2019-05-20T10:30:28.579Z,25.23
2019-05-20T10:33:36.980Z,24.95
2019-05-20T10:36:41.535Z,24.27
2019-05-20T10:39:47.483Z,23.95
2019-05-20T10:42:53.214Z,23.67
2019-05-20T10:45:59.910Z,21.57
2019-05-20T10:49:05.574Z,22.75
2019-05-20T10:52:11.229Z,21.87
2019-05-20T10:55:17.152Z,21.95
2019-05-20T10:58:22.815Z,21.30
2019-05-20T11:01:28.488Z,19.82
2019-05-20T11:04:35.517Z,20.88
2019-05-20T11:07:41.245Z,19.48
2019-05-20T11:10:48.238Z,19.75
2019-05-20T11:13:53.891Z,19.70
2019-05-20T11:16:59.516Z,17.60
2019-05-20T11:20:06.363Z,18.00
2019-05-20T11:23:11.886Z,17.90
2019-05-20T11:26:17.502Z,17.77
2019-05-20T11:29:23.197Z,17.75
2019-05-20T11:32:28.788Z,16.82
2019-05-20T11:35:34.453Z,17.10
2019-05-20T11:38:40.144Z,15.48
2019-05-20T11:41:53.430Z,16.02
2019-05-20T11:44:53.069Z,16.32
2019-05-20T11:47:58.675Z,15.50
2019-05-20T11:51:04.344Z,14.55
2019-05-20T11:54:10.058Z,15.00
2019-05-20T11:57:15.658Z,13.68
2019-05-20T12:00:21.317Z,13.70
2019-05-20T12:03:27.047Z,13.53
2019-05-20T12:06:32.696Z,14.00
2019-05-20T12:09:49.325Z,14.03
2019-05-20T12:12:46.257Z,12.63
2019-05-20T12:15:51.966Z,12.95
2019-05-20T12:18:57.749Z,12.90
2019-05-20T12:22:03.347Z,11.95
2019-05-20T12:25:09.440Z,12.18
2019-05-20T12:28:14.989Z,12.05
2019-05-20T12:31:20.578Z,11.88
2019-05-20T12:34:26.294Z,11.65
2019-05-20T12:37:31.914Z,11.90
2019-05-20T12:40:37.586Z,11.55
2019-05-20T12:43:44.875Z,11.40
2019-05-20T12:46:51.311Z,11.88
2019-05-20T12:49:57.005Z,11.70
2019-05-20T12:53:02.705Z,10.78
2019-05-20T12:56:10.091Z,10.23
2019-05-20T12:59:15.802Z,10.68
2019-05-20T13:02:21.518Z,10.08
2019-05-20T13:05:27.163Z,10.00
2019-05-20T13:08:33.013Z,9.35
2019-05-20T13:11:40.218Z,10.10
2019-05-20T13:14:47.434Z,10.00
2019-05-20T13:17:54.268Z,9.25
2019-05-20T13:20:59.880Z,9.30
2019-05-20T13:24:05.508Z,9.75
2019-05-20T13:27:11.227Z,9.15
2019-05-20T13:30:18.317Z,8.68
2019-05-20T13:33:24.005Z,9.15
2019-05-20T13:36:29.708Z,8.88
2019-05-20T13:39:38.056Z,9.13
2019-05-20T13:42:44.893Z,8.90
2019-05-20T13:45:50.661Z,8.70
2019-05-20T13:48:56.337Z,8.03
2019-05-20T13:52:02.254Z,8.00
2019-05-20T13:55:08.455Z,7.37
2019-05-20T13:58:14.167Z,8.55
2019-05-20T14:01:19.923Z,7.40
2019-05-20T14:04:25.656Z,7.70
2019-05-20T14:07:33.050Z,7.47
2019-05-20T14:10:40.494Z,7.50
2019-05-20T14:13:46.103Z,7.67
2019-05-20T14:16:51.737Z,7.80
2019-05-20T14:19:59.522Z,7.67
2019-05-20T14:23:05.174Z,7.37
2019-05-20T14:26:10.863Z,7.62
2019-05-20T14:29:16.506Z,7.80
2019-05-20T14:32:22.196Z,7.58
2019-05-20T14:35:27.919Z,8.40
2019-05-20T14:38:33.717Z,8.75
2019-05-20T14:41:40.739Z,7.95
2019-05-20T14:44:48.398Z,7.65
2019-05-20T14:47:57.206Z,7.58
2019-05-20T14:51:02.939Z,7.70
2019-05-20T14:54:08.705Z,8.10
2019-05-20T14:57:15.104Z,7.80
2019-05-20T15:00:21.021Z,7.85
2019-05-20T15:03:28.563Z,7.65
2019-05-20T15:06:34.258Z,7.22
2019-05-20T15:09:39.899Z,7.95
2019-05-20T15:12:45.586Z,7.72
2019-05-20T15:15:51.411Z,7.85
2019-05-20T15:18:57.090Z,7.12
2019-05-20T15:22:03.249Z,8.00
2019-05-20T15:25:09.633Z,7.85
2019-05-20T15:28:15.412Z,7.72
2019-05-20T15:31:21.011Z,7.20
2019-05-20T15:34:26.594Z,7.25
2019-05-20T15:37:32.237Z,7.37
2019-05-20T15:40:37.891Z,7.65
2019-05-20T15:43:43.652Z,7.65
2019-05-20T15:47:00.138Z,7.65
2019-05-20T15:50:08.686Z,7.30
2019-05-20T15:53:13.665Z,8.20
2019-05-20T15:56:19.369Z,8.80
2019-05-20T15:59:26.050Z,8.08
2019-05-20T16:02:31.790Z,8.70
2019-05-20T16:06:10.767Z,8.88
2019-05-20T16:09:49.434Z,8.50
2019-05-20T16:13:03.897Z,8.93
2019-05-20T16:16:18.923Z,8.48
2019-05-20T16:19:26.775Z,9.25
2019-05-20T16:22:32.410Z,9.10
2019-05-20T16:25:39.226Z,8.13
2019-05-20T16:28:44.922Z,8.85
2019-05-20T16:31:50.540Z,8.58
2019-05-20T16:34:56.210Z,8.65
2019-05-20T16:38:01.970Z,8.33
2019-05-20T16:41:07.686Z,8.55
2019-05-20T16:44:13.495Z,8.85
2019-05-20T16:47:20.842Z,9.35
2019-05-20T16:50:26.643Z,8.95
2019-05-20T16:53:34.256Z,8.70
2019-05-20T16:56:39.914Z,8.50
2019-05-20T16:59:47.039Z,8.58
2019-05-20T17:02:52.794Z,8.48
2019-05-20T17:05:58.419Z,8.55
2019-05-20T17:09:05.272Z,8.10
2019-05-20T17:12:10.872Z,8.55
2019-05-20T17:15:16.750Z,8.18
2019-05-20T17:18:22.386Z,8.88
2019-05-20T17:21:28.914Z,8.95
2019-05-20T17:24:34.764Z,8.23
2019-05-20T17:27:41.489Z,8.73
2019-05-20T17:30:47.255Z,8.93
2019-05-20T17:33:52.916Z,8.28
2019-05-20T17:37:00.914Z,8.45
2019-05-20T17:40:07.927Z,8.23
2019-05-20T17:43:13.509Z,7.65
2019-05-20T17:46:19.312Z,8.20
2019-05-20T17:49:25.158Z,7.95
2019-05-20T17:52:31.920Z,7.65
2019-05-20T17:55:37.718Z,7.35
2019-05-20T17:58:43.338Z,7.78
2019-05-20T18:01:48.969Z,7.20
2019-05-20T18:04:54.493Z,7.90
2019-05-20T18:08:00.115Z,7.53
2019-05-20T18:11:05.822Z,7.28
2019-05-20T18:14:11.501Z,7.62
2019-05-20T18:17:17.180Z,7.55
2019-05-20T18:20:22.782Z,7.17
2019-05-20T18:23:29.321Z,7.72
2019-05-20T18:26:34.976Z,7.80
2019-05-20T18:29:40.588Z,7.50
2019-05-20T18:32:46.218Z,7.62
2019-05-20T18:35:51.929Z,6.95
2019-05-20T18:38:59.394Z,7.67
2019-05-20T18:42:05.122Z,7.97
2019-05-20T18:45:11.209Z,7.92
2019-05-20T18:48:16.861Z,7.80
2019-05-20T18:51:22.626Z,7.70
2019-05-20T18:54:28.586Z,7.62
2019-05-20T18:57:34.202Z,7.67
2019-05-20T19:00:40.026Z,7.70
2019-05-20T19:03:45.554Z,7.35
2019-05-20T19:06:51.166Z,7.17
2019-05-20T19:09:56.979Z,6.95
2019-05-20T19:13:02.603Z,7.28
2019-05-20T19:16:08.278Z,7.53
2019-05-20T19:19:13.989Z,7.53
2019-05-20T19:22:19.660Z,7.37
2019-05-20T19:25:36.980Z,8.13
2019-05-20T19:28:32.707Z,8.00
2019-05-20T19:31:38.420Z,7.22
2019-05-20T19:34:44.206Z,6.47
2019-05-20T19:37:49.974Z,6.62
2019-05-20T19:40:55.759Z,7.17
2019-05-20T19:44:01.667Z,6.35
2019-05-20T19:47:08.463Z,6.80
2019-05-20T19:50:15.007Z,6.50
2019-05-20T19:53:21.671Z,7.60
2019-05-20T19:56:27.505Z,7.15
2019-05-20T19:59:33.093Z,6.85
2019-05-20T20:02:39.930Z,7.40
2019-05-20T20:05:45.722Z,7.85
2019-05-20T20:08:51.519Z,6.78
2019-05-20T20:11:57.345Z,7.80
2019-05-20T20:15:33.823Z,7.70
2019-05-20T20:18:47.844Z,7.53
2019-05-20T20:22:04.154Z,7.40
2019-05-20T20:25:09.488Z,7.15
2019-05-20T20:28:15.211Z,7.78
2019-05-20T20:31:20.970Z,7.42
2019-05-20T20:34:30.469Z,7.58
2019-05-20T20:37:36.599Z,8.10
2019-05-20T20:40:42.522Z,7.37
2019-05-20T20:43:48.263Z,7.87
2019-05-20T20:46:54.034Z,8.45
2019-05-20T20:49:59.900Z,8.13
2019-05-20T20:53:05.731Z,7.87
2019-05-20T20:56:24.094Z,8.00
2019-05-20T20:59:19.950Z,8.45
2019-05-20T21:02:25.745Z,8.23
2019-05-20T21:05:34.193Z,7.30
2019-05-20T21:08:39.849Z,8.08
2019-05-20T21:11:45.535Z,8.45
2019-05-20T21:14:52.191Z,7.50
2019-05-20T21:18:02.104Z,7.58
2019-05-20T21:21:07.858Z,7.40
2019-05-20T21:24:14.774Z,7.92
2019-05-20T21:27:20.437Z,7.60
2019-05-20T21:30:27.148Z,8.43
2019-05-20T21:33:33.319Z,8.88
2019-05-20T21:36:47.802Z,9.95
2019-05-20T21:39:49.233Z,8.75
2019-05-20T21:42:55.879Z,9.50
2019-05-20T21:47:05.071Z,11.12
2019-05-20T21:50:10.727Z,11.45
2019-05-20T21:53:16.405Z,11.33
2019-05-20T21:56:22.135Z,10.95
2019-05-20T21:59:27.814Z,10.80
2019-05-20T22:02:34.421Z,11.45
2019-05-20T22:05:40.070Z,10.15
2019-05-20T22:08:45.826Z,10.88
2019-05-20T22:11:51.614Z,10.48
2019-05-20T22:14:59.077Z,9.98
2019-05-20T22:18:04.758Z,9.75
2019-05-20T22:21:12.058Z,10.23
2019-05-20T22:24:17.578Z,10.38
2019-05-20T22:27:23.239Z,9.70
2019-05-20T22:30:30.005Z,10.78
2019-05-20T22:33:41.893Z,10.60
2019-05-20T22:36:43.055Z,9.93
2019-05-20T22:39:48.907Z,9.95
2019-05-20T22:42:54.553Z,9.43
2019-05-20T22:46:00.177Z,9.58
2019-05-20T22:49:07.329Z,9.20
2019-05-20T22:52:12.944Z,8.90
2019-05-20T22:55:18.575Z,9.23
2019-05-20T22:58:24.362Z,9.35
2019-05-20T23:01:30.011Z,9.63
2019-05-20T23:04:35.693Z,9.10
2019-05-20T23:07:41.386Z,9.10
2019-05-20T23:10:47.278Z,9.53
2019-05-20T23:13:52.962Z,8.90
2019-05-20T23:16:58.610Z,8.85
2019-05-20T23:20:04.343Z,8.98
2019-05-20T23:23:10.911Z,7.87
2019-05-20T23:26:16.563Z,8.58
2019-05-20T23:29:22.223Z,9.40
2019-05-20T23:32:27.876Z,8.55
2019-05-20T23:35:33.454Z,8.68
2019-05-20T23:38:39.180Z,8.55
2019-05-20T23:41:44.835Z,8.30
2019-05-20T23:44:50.485Z,7.53
2019-05-20T23:47:56.174Z,8.33
2019-05-20T23:51:01.889Z,8.05
2019-05-20T23:54:07.481Z,7.75
2019-05-20T23:57:13.201Z,7.87
